Airfield :
LOGIN :

Register | Disclaimer

   EN    FR    IT 

 










Legend :    VFR   Marginal VFR   IFR   Intensive IFR   Very Intensive IFR
Visi :
Ceiling :
>= 8 km
>= 3000ft
5 to 8 km
1000 to 3000 ft
1500m to 5 km
500 to 1000 ft
800 to 1500m
200 to 500 ft
< 800m
< 200 ft
Symbols :   Thunderstorms  Fog  Heavy snow  Heavy precipitations  Wind > 20 kt
SIGMETs :     Misc.  Thunderstorms  Icing  Turbulence  Mountain Waves  Volcanic Ashes







- Airport Elevation : 364 ft
- IATA code : FRA


EDDF - Frankfurt Int.

CURRENT METAR :
  • 210350Z 23006KT CAVOK 20/14 Q1010 NOSIG

EXPIRED METARs :
  • 210320Z 19006KT CAVOK 19/14 Q1010 NOSIG
  • 210250Z 18005KT CAVOK 20/14 Q1009 NOSIG
  • 210220Z 17003KT 150V220 CAVOK 20/13 Q1009 NOSIG
  • 210150Z 17003KT 130V240 CAVOK 19/12 Q1009 NOSIG
  • 210120Z 18004KT 130V240 CAVOK 19/11 Q1009 NOSIG

TAF TAF EDDF
Valid from the 21 at 00:00 until the 22 at 06:00 UTC


202300Z 2100/2206 20004KT CAVOK
PROB30
TEMPO 2103/2107 SHRA SCT050CB
PROB30
TEMPO 2111/2122 20012KT -TSRA SCT050CB
No reported NOTAMs for that airfield.



MET'MAP, your aeronautical weather chart ! - Copyright ORBIFLY December 2007 - Disclaimer

ORBIFLY MET'MAP TEAM :

Programming & Development : Alexandra Zaïnal
Concept & Development : Baudouin d'Aumeries
Co-Development & Prog : Marc-Olivier Méhu
Technical & hardware support : Manuel Goepfert

Contact : metmap@orbifly.com




SOURCES & CREDITS :

   NOAA